Time;durP1;ratioP1;P1;durP2;ratioP2;P2;SDS_P1;SDS_P2;PMS_P1;PMS_P2;Temp;Humidity;BMP_temperature;BMP_pressure;BME280_temperature;BME280_humidity;BME280_pressure;Samples;Min_cycle;Max_cycle;Signal;HPM_P1;HPM_P2
2022/09/24 00:02:09;;;;;;;4.50;3.50;;;9.10;99.90;;;;;;5030572;28;20436;-60
2022/09/24 00:04:35;;;;;;;7.90;3.38;;;9.10;99.90;;;;;;5065593;28;20450;-61
2022/09/24 00:07:00;;;;;;;3.83;3.13;;;9.00;99.90;;;;;;5069426;28;20028;-61
2022/09/24 00:09:26;;;;;;;5.32;3.33;;;9.10;99.90;;;;;;5047828;28;20708;-60
2022/09/24 00:11:52;;;;;;;5.78;2.95;;;9.00;99.90;;;;;;5049238;28;20120;-60
2022/09/24 00:14:18;;;;;;;3.40;2.60;;;9.00;99.90;;;;;;5068657;28;20037;-61
2022/09/24 00:16:44;;;;;;;7.03;3.20;;;9.00;99.90;;;;;;5048032;28;20033;-62
2022/09/24 00:19:11;;;;;;;5.05;2.88;;;9.00;99.90;;;;;;5068580;28;20111;-61
2022/09/24 00:21:38;;;;;;;4.30;2.83;;;9.00;99.90;;;;;;5047672;28;20087;-61
2022/09/24 00:26:48;;;;;;;3.67;2.80;;;9.00;99.90;;;;;;5065589;28;20086;-60
2022/09/24 00:27:01;;;;;;;4.68;2.75;;;9.00;99.90;;;;;;5030150;28;20037;-60
2022/09/24 00:29:28;;;;;;;3.65;2.67;;;9.00;99.90;;;;;;5067011;28;20115;-59
2022/09/24 00:31:53;;;;;;;4.32;3.05;;;8.90;99.90;;;;;;5068714;28;20032;-60
2022/09/24 00:34:20;;;;;;;4.80;3.47;;;8.90;99.90;;;;;;5049626;28;20567;-60
2022/09/24 00:36:45;;;;;;;5.47;2.72;;;8.90;99.90;;;;;;5048070;28;20032;-61
2022/09/24 00:39:12;;;;;;;4.05;2.95;;;8.90;99.90;;;;;;5068122;28;20485;-61
2022/09/24 00:41:38;;;;;;;3.60;2.58;;;8.90;99.90;;;;;;5047639;28;20078;-60
2022/09/24 00:44:42;;;;;;;5.38;2.70;;;8.90;99.90;;;;;;5068406;28;20032;-60
2022/09/24 00:47:26;;;;;;;4.45;2.53;;;8.80;99.90;;;;;;5042250;28;20021;-61
2022/09/24 00:50:01;;;;;;;5.53;2.70;;;8.80;99.90;;;;;;5030062;28;20608;-61
2022/09/24 00:52:26;;;;;;;4.90;2.78;;;8.80;99.90;;;;;;5062014;28;20037;-61
2022/09/24 00:54:52;;;;;;;2.45;2.00;;;8.70;99.90;;;;;;5063811;28;21932;-60
2022/09/24 00:57:18;;;;;;;3.35;2.40;;;8.80;99.90;;;;;;5057864;28;20484;-61
2022/09/24 00:59:44;;;;;;;2.88;2.28;;;8.70;99.90;;;;;;5063941;28;20040;-60
2022/09/24 01:02:10;;;;;;;3.28;2.45;;;8.70;99.90;;;;;;5060905;28;20148;-61
2022/09/24 01:04:35;;;;;;;3.03;2.50;;;8.70;99.90;;;;;;5062726;28;20102;-60
2022/09/24 01:07:02;;;;;;;5.85;2.45;;;8.70;99.90;;;;;;5062650;28;20035;-61
2022/09/24 01:09:27;;;;;;;4.45;2.05;;;8.70;99.90;;;;;;5065087;28;20021;-61
2022/09/24 01:12:11;;;;;;;5.55;3.13;;;8.60;99.90;;;;;;5026027;28;20052;-61
2022/09/24 01:15:08;;;;;;;5.75;2.70;;;8.60;99.90;;;;;;5039512;28;20017;-61
2022/09/24 01:18:03;;;;;;;5.88;2.97;;;8.60;99.90;;;;;;5045405;28;20033;-61
2022/09/24 01:20:37;;;;;;;5.78;2.63;;;8.70;99.90;;;;;;5037976;28;20036;-60
2022/09/24 01:23:12;;;;;;;4.07;2.67;;;8.60;99.90;;;;;;5048717;28;20036;-61
2022/09/24 01:26:04;;;;;;;6.37;2.57;;;8.60;99.90;;;;;;5052228;28;20029;-62
2022/09/24 01:28:56;;;;;;;3.88;2.30;;;8.60;99.90;;;;;;5026165;28;20025;-61
2022/09/24 01:31:30;;;;;;;4.88;2.78;;;8.60;99.90;;;;;;5024320;28;20715;-61
2022/09/24 01:33:57;;;;;;;5.28;2.63;;;8.60;99.90;;;;;;5043762;28;20567;-64
2022/09/24 01:36:25;;;;;;;4.05;2.40;;;8.60;99.90;;;;;;5051433;28;20060;-64
2022/09/24 01:38:52;;;;;;;6.63;2.50;;;8.60;99.90;;;;;;5041618;28;20030;-64
2022/09/24 01:41:18;;;;;;;5.10;2.60;;;8.60;99.90;;;;;;5036146;28;20025;-65
2022/09/24 01:43:44;;;;;;;4.07;2.50;;;8.60;99.90;;;;;;5064450;28;20046;-64
2022/09/24 01:46:11;;;;;;;4.40;3.05;;;8.60;99.90;;;;;;5042870;28;20036;-64
2022/09/24 01:48:38;;;;;;;3.78;2.60;;;8.60;99.90;;;;;;5049140;28;20049;-64
2022/09/24 01:51:12;;;;;;;5.57;2.83;;;8.70;99.90;;;;;;5040524;28;20105;-64
2022/09/24 01:53:51;;;;;;;6.53;3.28;;;8.60;99.90;;;;;;5029358;28;20033;-64
2022/09/24 01:56:38;;;;;;;7.85;3.13;;;8.70;99.90;;;;;;5040594;28;20025;-64
2022/09/24 01:59:31;;;;;;;4.13;3.13;;;8.70;99.90;;;;;;5067201;28;20396;-64
2022/09/24 02:02:07;;;;;;;4.38;2.53;;;8.70;99.90;;;;;;5047626;28;20055;-64
2022/09/24 02:04:40;;;;;;;6.32;2.95;;;8.80;99.90;;;;;;5028150;28;20120;-63
2022/09/24 02:07:12;;;;;;;3.83;2.80;;;8.70;99.90;;;;;;5034386;28;20520;-64
2022/09/24 02:09:41;;;;;;;5.85;2.90;;;8.70;99.90;;;;;;5028974;28;20132;-64
2022/09/24 02:12:13;;;;;;;5.00;3.13;;;8.70;99.90;;;;;;5028161;28;20044;-64
2022/09/24 02:14:47;;;;;;;3.95;2.63;;;8.70;99.90;;;;;;5029067;28;20030;-64
2022/09/24 02:17:13;;;;;;;5.55;2.80;;;8.70;99.90;;;;;;5048220;28;20467;-64
2022/09/24 02:19:41;;;;;;;3.75;2.90;;;8.70;99.90;;;;;;5051660;28;20037;-62
2022/09/24 02:22:09;;;;;;;4.93;2.70;;;8.70;99.90;;;;;;5047101;28;20481;-64
2022/09/24 02:25:00;;;;;;;4.90;2.88;;;8.70;99.90;;;;;;5036835;28;20024;-62
2022/09/24 02:27:27;;;;;;;5.30;2.75;;;8.80;99.90;;;;;;5029219;28;20131;-64
2022/09/24 02:29:54;;;;;;;3.60;2.80;;;8.80;99.90;;;;;;5047053;28;20051;-62
2022/09/24 02:32:22;;;;;;;3.20;2.90;;;8.80;99.90;;;;;;5068692;28;20190;-64
2022/09/24 02:35:02;;;;;;;5.38;3.00;;;8.80;99.90;;;;;;5052658;28;20105;-65
2022/09/24 02:37:28;;;;;;;3.65;2.83;;;8.80;99.90;;;;;;5037127;28;20025;-63
2022/09/24 02:39:54;;;;;;;7.45;3.65;;;8.80;99.90;;;;;;5049669;28;20028;-62
2022/09/24 02:42:20;;;;;;;3.13;2.60;;;8.80;99.90;;;;;;5065678;28;20489;-62
2022/09/24 02:44:46;;;;;;;4.22;3.15;;;8.90;99.90;;;;;;5066427;28;20461;-63
2022/09/24 02:47:12;;;;;;;4.18;2.95;;;8.90;99.90;;;;;;5034910;28;20039;-64
2022/09/24 02:49:38;;;;;;;4.47;2.90;;;8.90;99.90;;;;;;5067354;28;20056;-65
2022/09/24 02:52:03;;;;;;;4.00;3.00;;;8.90;99.90;;;;;;5029555;28;20065;-64
2022/09/24 02:54:30;;;;;;;4.32;2.88;;;8.90;99.90;;;;;;5066733;28;20036;-63
2022/09/24 02:56:55;;;;;;;4.95;2.60;;;8.90;99.90;;;;;;5038270;28;20025;-64
2022/09/24 02:59:21;;;;;;;4.30;2.95;;;8.90;99.90;;;;;;5067327;28;20036;-64
2022/09/24 03:01:47;;;;;;;4.63;3.03;;;8.90;99.90;;;;;;5046579;28;20029;-63
2022/09/24 03:04:15;;;;;;;5.70;3.00;;;9.00;99.90;;;;;;5048293;28;20029;-64
2022/09/24 03:06:40;;;;;;;5.95;2.90;;;9.00;99.90;;;;;;5057384;28;20082;-65
2022/09/24 03:09:06;;;;;;;5.30;3.05;;;9.00;99.90;;;;;;5069056;28;20384;-64
2022/09/24 03:11:32;;;;;;;4.47;2.90;;;9.00;99.90;;;;;;5048311;28;20059;-64
2022/09/24 03:13:58;;;;;;;3.13;2.83;;;9.00;99.90;;;;;;5069528;28;20116;-64
2022/09/24 03:16:24;;;;;;;3.55;3.00;;;9.10;99.90;;;;;;5048919;28;20028;-64
2022/09/24 03:18:49;;;;;;;5.32;3.38;;;9.00;99.90;;;;;;5069423;28;20503;-64
2022/09/24 03:21:17;;;;;;;4.63;3.13;;;9.10;99.90;;;;;;5058904;28;20033;-65
2022/09/24 03:23:43;;;;;;;4.32;3.53;;;9.10;99.90;;;;;;5047153;28;20438;-64
2022/09/24 03:26:09;;;;;;;5.50;3.28;;;9.10;99.90;;;;;;5067426;28;20056;-64
2022/09/24 03:28:35;;;;;;;3.75;3.20;;;9.10;99.90;;;;;;5050536;28;20119;-64
2022/09/24 03:31:00;;;;;;;6.05;2.97;;;9.20;99.90;;;;;;5067093;28;20033;-64
2022/09/24 03:33:33;;;;;;;7.00;3.08;;;9.20;99.90;;;;;;5050213;28;20028;-64
2022/09/24 03:36:28;;;;;;;7.35;3.38;;;9.20;99.90;;;;;;5065963;28;20055;-64
2022/09/24 03:38:55;;;;;;;5.45;3.42;;;9.30;99.90;;;;;;5033160;28;20038;-64
2022/09/24 03:41:22;;;;;;;5.40;3.55;;;9.30;99.90;;;;;;5056549;28;20029;-63
2022/09/24 03:43:48;;;;;;;4.32;3.00;;;9.30;99.90;;;;;;5068794;28;20025;-63
2022/09/24 03:46:15;;;;;;;5.35;3.47;;;9.30;99.90;;;;;;5057278;28;20691;-64
2022/09/24 03:48:41;;;;;;;6.30;3.10;;;9.30;99.90;;;;;;5049688;28;20025;-63
2022/09/24 03:51:17;;;;;;;6.68;2.95;;;9.40;99.90;;;;;;5066737;28;20115;-63
2022/09/24 03:53:43;;;;;;;4.95;3.00;;;9.40;99.90;;;;;;5029735;28;20053;-63
2022/09/24 03:56:10;;;;;;;7.80;3.97;;;9.40;99.90;;;;;;5066381;28;20671;-63
2022/09/24 03:58:37;;;;;;;6.60;3.28;;;9.40;99.90;;;;;;5049630;28;20114;-62
2022/09/24 04:01:05;;;;;;;4.57;3.53;;;9.40;99.90;;;;;;5067191;28;20077;-63
2022/09/24 04:03:31;;;;;;;3.67;2.90;;;9.40;99.90;;;;;;5069558;28;20055;-64
2022/09/24 04:05:56;;;;;;;4.82;3.33;;;9.40;99.90;;;;;;5054054;28;20507;-63
2022/09/24 04:08:22;;;;;;;6.00;3.42;;;9.40;99.90;;;;;;5069457;28;20504;-63
2022/09/24 04:10:49;;;;;;;4.22;3.42;;;9.40;99.90;;;;;;5046636;28;20555;-63
2022/09/24 04:13:15;;;;;;;3.92;3.13;;;9.40;99.90;;;;;;5048809;28;20029;-64
2022/09/24 04:15:41;;;;;;;3.88;3.40;;;9.30;99.90;;;;;;5063211;28;20031;-64
2022/09/24 04:18:07;;;;;;;8.48;4.18;;;9.30;99.90;;;;;;5044089;28;20033;-64
2022/09/24 04:20:33;;;;;;;7.97;5.03;;;9.30;99.90;;;;;;5032960;28;20030;-63
2022/09/24 04:22:59;;;;;;;11.20;6.47;;;9.30;99.90;;;;;;5046958;28;20044;-64
2022/09/24 04:25:26;;;;;;;8.43;5.25;;;9.30;99.90;;;;;;5045009;28;20025;-63
2022/09/24 04:27:54;;;;;;;11.68;6.75;;;9.30;99.90;;;;;;5042801;28;20017;-63
2022/09/24 04:30:20;;;;;;;9.30;5.60;;;9.30;99.90;;;;;;5058045;28;20029;-63
2022/09/24 04:32:45;;;;;;;8.15;4.40;;;9.30;99.90;;;;;;5067147;28;20039;-60
2022/09/24 04:35:11;;;;;;;7.40;5.00;;;9.30;99.90;;;;;;5053463;28;20056;-61
2022/09/24 04:37:36;;;;;;;7.03;4.28;;;9.30;99.90;;;;;;5036243;28;20057;-63
2022/09/24 04:40:04;;;;;;;5.85;4.30;;;9.30;99.90;;;;;;5063299;28;20025;-64
2022/09/24 04:42:29;;;;;;;7.68;4.60;;;9.30;99.90;;;;;;5028119;28;20569;-63
2022/09/24 04:44:55;;;;;;;6.55;4.50;;;9.30;99.90;;;;;;5051167;28;20071;-63
2022/09/24 04:47:23;;;;;;;6.82;3.83;;;9.30;99.90;;;;;;5046913;28;20037;-63
2022/09/24 04:49:48;;;;;;;5.65;3.90;;;9.30;99.90;;;;;;5065750;28;20027;-63
2022/09/24 04:52:14;;;;;;;4.35;3.72;;;9.30;99.90;;;;;;5045197;28;20108;-64
2022/09/24 04:54:45;;;;;;;5.07;4.00;;;9.30;99.90;;;;;;5064322;28;20492;-64
2022/09/24 04:57:11;;;;;;;3.58;2.83;;;9.40;99.90;;;;;;5039822;28;20051;-64
2022/09/24 04:59:37;;;;;;;3.40;2.95;;;9.30;99.90;;;;;;5060397;28;20638;-64
2022/09/24 05:02:02;;;;;;;4.80;3.35;;;9.30;99.90;;;;;;5036589;28;20029;-64
2022/09/24 05:04:29;;;;;;;4.03;3.47;;;9.30;99.90;;;;;;5065023;28;20116;-64
2022/09/24 05:06:54;;;;;;;3.70;3.22;;;9.30;99.90;;;;;;5032120;28;20565;-64
2022/09/24 05:09:20;;;;;;;4.30;3.47;;;9.30;99.90;;;;;;5064967;28;20037;-64
2022/09/24 05:11:45;;;;;;;3.80;3.05;;;9.40;99.90;;;;;;5033959;28;20049;-64
2022/09/24 05:14:10;;;;;;;5.10;3.40;;;9.40;99.90;;;;;;5052452;28;20076;-64
2022/09/24 05:16:36;;;;;;;5.53;3.55;;;9.40;99.90;;;;;;5063034;28;20400;-63
2022/09/24 05:19:03;;;;;;;6.50;4.00;;;9.40;99.90;;;;;;5044516;28;20116;-63
2022/09/24 05:21:29;;;;;;;6.15;4.05;;;9.40;99.90;;;;;;5063547;28;20017;-64
2022/09/24 05:23:55;;;;;;;5.80;3.88;;;9.40;99.90;;;;;;5041275;28;20033;-63
2022/09/24 05:29:04;;;;;;;6.18;4.13;;;9.50;99.90;;;;;;5046546;28;20171;-63
2022/09/24 05:31:30;;;;;;;8.68;4.40;;;9.50;99.90;;;;;;5066464;28;20123;-64
2022/09/24 05:33:56;;;;;;;6.65;4.85;;;9.50;99.90;;;;;;5049086;28;20033;-62
2022/09/24 05:36:22;;;;;;;6.97;4.28;;;9.60;99.90;;;;;;5066946;28;20741;-62
2022/09/24 05:38:47;;;;;;;4.72;3.97;;;9.60;99.90;;;;;;5069835;28;20080;-62
2022/09/24 05:41:12;;;;;;;8.40;4.72;;;9.70;99.90;;;;;;5048717;28;20040;-62
2022/09/24 05:43:40;;;;;;;5.43;4.30;;;9.80;99.90;;;;;;5043980;28;20066;-61
2022/09/24 05:46:06;;;;;;;6.80;4.95;;;9.80;99.90;;;;;;5063729;28;20111;-62
2022/09/24 05:48:32;;;;;;;7.40;4.70;;;9.80;99.90;;;;;;5049495;28;20028;-62
2022/09/24 05:51:00;;;;;;;6.63;4.90;;;9.90;99.90;;;;;;5067567;28;20516;-62
2022/09/24 05:53:25;;;;;;;6.75;4.47;;;10.00;99.90;;;;;;5070208;28;20036;-62
2022/09/24 05:55:51;;;;;;;8.55;4.97;;;10.00;99.90;;;;;;5048753;28;20029;-62
2022/09/24 05:58:17;;;;;;;6.68;4.70;;;10.10;99.90;;;;;;5050404;28;20036;-62
2022/09/24 06:00:44;;;;;;;5.10;4.45;;;10.20;99.90;;;;;;5068111;28;20024;-62
2022/09/24 06:03:15;;;;;;;4.85;4.07;;;10.30;99.90;;;;;;5050660;28;20400;-62
2022/09/24 06:05:45;;;;;;;8.60;5.55;;;10.40;99.90;;;;;;5069250;28;20550;-62
2022/09/24 06:08:14;;;;;;;6.20;4.30;;;10.50;99.90;;;;;;5071752;28;20127;-62
2022/09/24 06:10:39;;;;;;;5.10;4.05;;;10.60;99.90;;;;;;5047278;28;20037;-64
2022/09/24 06:13:05;;;;;;;7.28;5.25;;;10.80;99.90;;;;;;5049773;28;20051;-63
2022/09/24 06:15:31;;;;;;;5.85;4.97;;;11.00;99.90;;;;;;5050158;28;20075;-63
2022/09/24 06:17:56;;;;;;;6.90;4.78;;;11.60;99.90;;;;;;5048475;28;20409;-62
2022/09/24 06:20:22;;;;;;;8.88;4.80;;;12.50;97.60;;;;;;5060211;28;20037;-62
2022/09/24 06:22:48;;;;;;;8.73;4.60;;;13.00;92.50;;;;;;5046442;28;20032;-61
2022/09/24 06:25:13;;;;;;;5.82;4.25;;;13.30;88.50;;;;;;5050396;28;20041;-62
2022/09/24 06:27:39;;;;;;;4.97;4.00;;;13.60;82.00;;;;;;5049035;28;20452;-62
2022/09/24 06:30:05;;;;;;;4.97;4.10;;;13.90;86.30;;;;;;5070625;28;20085;-62
2022/09/24 06:32:31;;;;;;;5.32;3.80;;;13.80;85.20;;;;;;5049654;28;20642;-56
2022/09/24 06:34:56;;;;;;;5.80;4.10;;;13.70;87.40;;;;;;5064386;28;20041;-62
2022/09/24 06:37:22;;;;;;;5.95;3.92;;;13.60;84.20;;;;;;5062502;28;20029;-62
2022/09/24 06:39:47;;;;;;;6.28;4.25;;;13.40;86.90;;;;;;5051633;28;20091;-62
2022/09/24 06:42:13;;;;;;;4.65;3.70;;;13.30;88.30;;;;;;5056091;28;20037;-62
2022/09/24 06:44:38;;;;;;;6.60;3.83;;;13.20;87.80;;;;;;5069799;28;20043;-62
2022/09/24 06:47:04;;;;;;;5.70;4.40;;;13.10;89.80;;;;;;5049749;28;20033;-63
2022/09/24 06:49:30;;;;;;;5.40;4.63;;;13.00;83.10;;;;;;5070274;28;20095;-62
2022/09/24 06:51:57;;;;;;;5.70;4.15;;;12.90;85.80;;;;;;5057546;28;20404;-62
2022/09/24 06:54:23;;;;;;;6.07;4.07;;;12.80;86.50;;;;;;5041968;28;20028;-62
2022/09/24 06:56:49;;;;;;;6.10;4.45;;;12.80;90.20;;;;;;5067249;28;20484;-62
2022/09/24 06:59:14;;;;;;;7.28;5.07;;;12.90;87.80;;;;;;5051258;28;20025;-62
2022/09/24 07:01:40;;;;;;;6.45;4.45;;;12.70;87.90;;;;;;5067887;28;20074;-61
2022/09/24 07:04:05;;;;;;;5.95;4.13;;;12.80;90.30;;;;;;5069487;28;20441;-63
2022/09/24 07:07:28;;;;;;;6.68;4.43;;;12.90;89.90;;;;;;5054899;28;20092;-61
2022/09/24 07:09:18;;;;;;;5.60;4.10;;;13.00;87.30;;;;;;5055441;28;20025;-62
2022/09/24 07:11:45;;;;;;;6.13;4.47;;;13.10;86.60;;;;;;5067574;28;20401;-59
2022/09/24 07:14:11;;;;;;;10.02;4.72;;;13.20;85.60;;;;;;5049319;28;20020;-59
2022/09/24 07:16:36;;;;;;;7.93;4.05;;;13.30;83.70;;;;;;5067455;28;20039;-59
2022/09/24 07:19:02;;;;;;;7.63;4.70;;;13.30;82.50;;;;;;5068869;28;20095;-59
2022/09/24 07:21:27;;;;;;;6.32;3.95;;;13.40;82.70;;;;;;5053799;28;20404;-59
2022/09/24 07:23:53;;;;;;;6.40;4.75;;;13.50;85.80;;;;;;5053761;28;20111;-59
2022/09/24 07:26:18;;;;;;;6.22;4.57;;;13.60;82.70;;;;;;5067552;28;20520;-59
2022/09/24 07:28:44;;;;;;;5.97;4.10;;;13.80;81.80;;;;;;5069989;28;20037;-60
2022/09/24 07:31:09;;;;;;;5.28;4.07;;;13.90;80.30;;;;;;5049455;28;20049;-59
2022/09/24 07:33:35;;;;;;;6.88;4.75;;;14.10;78.00;;;;;;5069895;28;20060;-60
2022/09/24 07:36:07;;;;;;;5.00;3.65;;;14.10;78.30;;;;;;5047958;28;20044;-59
2022/09/24 07:38:35;;;;;;;6.55;4.20;;;14.20;78.70;;;;;;5069929;28;20369;-59
2022/09/24 07:41:02;;;;;;;4.60;3.90;;;14.30;77.50;;;;;;5048944;28;20170;-59
2022/09/24 07:43:28;;;;;;;8.00;4.45;;;14.40;74.00;;;;;;5069535;28;20023;-59
2022/09/24 07:45:55;;;;;;;4.57;3.95;;;14.50;77.00;;;;;;5050129;28;20044;-59
2022/09/24 07:48:21;;;;;;;6.40;4.43;;;14.40;73.30;;;;;;5047069;28;20025;-59
2022/09/24 07:50:46;;;;;;;5.43;4.10;;;14.30;72.20;;;;;;5067709;28;20101;-59
2022/09/24 07:53:12;;;;;;;4.63;4.00;;;14.30;71.60;;;;;;5048551;28;20025;-59
2022/09/24 07:55:39;;;;;;;6.20;3.90;;;14.20;69.80;;;;;;5068474;28;20028;-59
2022/09/24 07:58:06;;;;;;;5.65;3.72;;;14.20;73.10;;;;;;5048081;28;20108;-59
2022/09/24 08:00:32;;;;;;;4.57;3.65;;;14.20;74.10;;;;;;5069483;28;20066;-59
2022/09/24 08:02:58;;;;;;;5.22;3.70;;;14.30;74.00;;;;;;5029671;28;20053;-59
2022/09/24 08:05:24;;;;;;;7.75;4.20;;;14.30;72.90;;;;;;5066531;28;20468;-62
2022/09/24 08:07:51;;;;;;;5.63;4.10;;;14.30;72.80;;;;;;5045923;28;20512;-62
2022/09/24 08:10:17;;;;;;;7.78;4.40;;;14.20;74.90;;;;;;5067584;28;20064;-62
2022/09/24 08:12:42;;;;;;;4.97;3.65;;;14.30;75.00;;;;;;5046495;28;20448;-62
2022/09/24 08:15:08;;;;;;;5.40;3.97;;;14.30;75.20;;;;;;5067174;28;20028;-62
2022/09/24 08:17:34;;;;;;;5.30;3.47;;;14.30;75.00;;;;;;5046690;28;20037;-62
2022/09/24 08:19:59;;;;;;;6.18;3.40;;;14.40;75.00;;;;;;5068162;28;20028;-62
2022/09/24 08:22:25;;;;;;;5.07;3.92;;;14.50;75.60;;;;;;5049060;28;20052;-62
2022/09/24 08:24:52;;;;;;;4.30;3.78;;;14.50;72.20;;;;;;5063607;28;20465;-62
2022/09/24 08:27:22;;;;;;;7.45;4.35;;;14.40;73.70;;;;;;5057640;28;20400;-62
2022/09/24 08:29:47;;;;;;;5.95;4.13;;;14.40;74.40;;;;;;5029465;28;20029;-62
2022/09/24 08:32:13;;;;;;;6.00;4.38;;;14.30;73.60;;;;;;5065497;28;20036;-62
2022/09/24 08:34:39;;;;;;;5.30;3.85;;;14.30;73.10;;;;;;5052755;28;20032;-62
2022/09/24 08:37:05;;;;;;;5.53;3.25;;;14.30;74.60;;;;;;5067406;28;20027;-62
2022/09/24 08:39:32;;;;;;;5.85;3.67;;;14.30;75.20;;;;;;5049576;28;20627;-62
2022/09/24 08:42:21;;;;;;;5.10;3.33;;;14.30;74.30;;;;;;5066315;28;20030;-62
2022/09/24 08:47:42;;;;;;;5.70;3.35;;;14.50;74.80;;;;;;5049851;28;20061;-63
2022/09/24 08:50:15;;;;;;;4.90;3.40;;;14.60;72.60;;;;;;5028843;28;20033;-62
2022/09/24 08:52:55;;;;;;;6.05;3.72;;;14.70;70.70;;;;;;5039659;28;20064;-62
2022/09/24 08:55:23;;;;;;;6.15;3.30;;;14.80;71.30;;;;;;5027604;28;20113;-62
2022/09/24 08:58:09;;;;;;;5.30;3.05;;;14.80;71.50;;;;;;5052772;28;20509;-62
2022/09/24 09:00:44;;;;;;;3.73;2.83;;;15.00;71.60;;;;;;5032606;28;20557;-62
2022/09/24 09:03:22;;;;;;;4.28;3.17;;;15.10;71.10;;;;;;5047498;28;20267;-62
2022/09/24 09:05:57;;;;;;;3.67;2.60;;;15.10;69.80;;;;;;5032658;28;20478;-62
2022/09/24 09:08:50;;;;;;;5.82;3.03;;;15.20;71.00;;;;;;5049118;28;20032;-62
2022/09/24 09:11:19;;;;;;;6.80;3.85;;;15.40;67.80;;;;;;5040722;28;20037;-61
2022/09/24 09:14:11;;;;;;;7.05;3.72;;;15.40;67.50;;;;;;5068667;28;20029;-61
2022/09/24 09:16:54;;;;;;;5.55;3.95;;;15.50;64.60;;;;;;5050080;28;20597;-62
2022/09/24 09:19:29;;;;;;;4.88;3.33;;;15.60;66.00;;;;;;5052431;28;20416;-62
2022/09/24 09:22:06;;;;;;;3.78;3.28;;;15.70;66.20;;;;;;5041840;28;20515;-67
2022/09/24 09:24:49;;;;;;;5.95;3.70;;;15.80;65.40;;;;;;5048361;28;20037;-68
2022/09/24 09:27:16;;;;;;;4.85;3.17;;;15.80;63.20;;;;;;5070023;28;20396;-68
2022/09/24 09:29:58;;;;;;;4.25;3.70;;;15.90;66.60;;;;;;5050412;28;20025;-67
2022/09/24 09:32:49;;;;;;;8.50;4.53;;;15.90;62.00;;;;;;5048992;28;20036;-68
2022/09/24 09:35:41;;;;;;;4.85;3.45;;;15.80;59.20;;;;;;5048724;28;20191;-67
2022/09/24 09:38:19;;;;;;;4.70;3.38;;;15.90;65.90;;;;;;5045360;28;20033;-67
2022/09/24 09:41:02;;;;;;;4.15;3.55;;;16.20;66.40;;;;;;5032267;28;20042;-67
2022/09/24 09:43:27;;;;;;;5.30;3.97;;;16.30;63.60;;;;;;5057321;28;20036;-67
2022/09/24 09:46:06;;;;;;;5.05;3.85;;;16.40;61.50;;;;;;5052551;28;20040;-67
2022/09/24 09:48:43;;;;;;;6.03;4.03;;;16.40;61.20;;;;;;5043784;28;20044;-67
2022/09/24 09:51:18;;;;;;;4.72;3.90;;;16.40;58.20;;;;;;5032001;28;20040;-67
2022/09/24 09:54:02;;;;;;;6.05;4.32;;;16.40;60.30;;;;;;5050003;28;20036;-67
2022/09/24 09:56:40;;;;;;;4.88;4.38;;;16.50;55.30;;;;;;5030310;28;20052;-66
2022/09/24 09:59:17;;;;;;;7.28;4.38;;;16.20;56.20;;;;;;5071667;28;20389;-67
2022/09/24 10:01:46;;;;;;;5.70;3.97;;;16.00;57.20;;;;;;5035351;28;20037;-66
2022/09/24 10:04:50;;;;;;;4.50;4.05;;;16.10;58.00;;;;;;5071602;28;20085;-67
2022/09/24 10:07:16;;;;;;;4.00;3.53;;;16.10;56.30;;;;;;5046693;28;20080;-67
2022/09/24 10:09:44;;;;;;;7.43;3.85;;;16.30;57.30;;;;;;5065607;28;20094;-67
2022/09/24 10:12:21;;;;;;;6.72;3.42;;;16.40;58.50;;;;;;5054950;28;20033;-67
2022/09/24 10:15:20;;;;;;;5.43;3.00;;;16.50;56.40;;;;;;5071567;28;20024;-67
2022/09/24 10:17:49;;;;;;;4.75;3.42;;;16.60;55.30;;;;;;5049865;28;20417;-67
2022/09/24 10:20:26;;;;;;;5.15;3.63;;;16.50;54.30;;;;;;5051567;28;20029;-67
2022/09/24 10:22:57;;;;;;;6.70;3.50;;;16.50;56.60;;;;;;5046861;28;20020;-66
2022/09/24 10:25:26;;;;;;;4.72;3.58;;;16.70;57.00;;;;;;5031615;28;20032;-67
2022/09/24 10:30:57;;;;;;;4.07;3.03;;;16.60;56.10;;;;;;5043481;28;20044;-67
2022/09/24 10:33:23;;;;;;;4.55;3.50;;;16.70;54.10;;;;;;5045369;28;20108;-67
2022/09/24 10:35:50;;;;;;;6.43;3.63;;;16.80;54.60;;;;;;5069017;28;20064;-67
2022/09/24 10:38:20;;;;;;;5.72;3.33;;;16.70;55.40;;;;;;5049729;28;20031;-67
2022/09/24 10:40:46;;;;;;;4.72;3.78;;;16.70;54.90;;;;;;5031284;28;20025;-68
2022/09/24 10:43:20;;;;;;;5.50;4.00;;;16.60;54.40;;;;;;5054120;28;20392;-68
2022/09/24 10:46:22;;;;;;;5.72;4.40;;;16.60;53.20;;;;;;5069295;28;20545;-68
2022/09/24 10:49:05;;;;;;;5.20;3.58;;;16.50;52.70;;;;;;5047726;28;20421;-67
2022/09/24 10:51:40;;;;;;;3.72;3.38;;;16.60;54.40;;;;;;5030922;28;20033;-68
2022/09/24 10:54:16;;;;;;;4.30;3.47;;;16.70;55.40;;;;;;5031007;28;20389;-67
2022/09/24 10:56:52;;;;;;;3.72;3.03;;;16.90;55.20;;;;;;5030066;28;20080;-68
2022/09/24 10:59:32;;;;;;;6.60;3.78;;;17.00;54.50;;;;;;5070769;28;20021;-68
2022/09/24 11:02:13;;;;;;;6.15;3.40;;;17.00;52.20;;;;;;5033809;28;20032;-67
2022/09/24 11:05:00;;;;;;;3.50;3.20;;;17.00;53.10;;;;;;5070505;28;20024;-67
2022/09/24 11:07:55;;;;;;;4.97;3.55;;;17.10;53.80;;;;;;5055624;28;20020;-68
2022/09/24 11:10:27;;;;;;;6.25;4.28;;;17.20;51.80;;;;;;5030605;28;20040;-68
2022/09/24 11:13:34;;;;;;;4.95;3.88;;;17.30;50.50;;;;;;5049589;28;20028;-66
2022/09/24 11:16:09;;;;;;;6.07;3.65;;;17.20;49.50;;;;;;5030687;28;20033;-68
2022/09/24 11:19:02;;;;;;;6.20;4.47;;;17.10;52.70;;;;;;5051077;28;20079;-67
2022/09/24 11:22:00;;;;;;;8.68;4.45;;;16.90;49.90;;;;;;5030374;28;20041;-67
2022/09/24 11:24:42;;;;;;;6.55;4.32;;;16.70;50.80;;;;;;5027399;28;20083;-66
2022/09/24 11:27:29;;;;;;;6.55;4.07;;;16.60;53.40;;;;;;5035841;28;20024;-67
2022/09/24 11:30:07;;;;;;;4.85;3.53;;;16.60;51.00;;;;;;5070079;28;20021;-68
2022/09/24 11:33:08;;;;;;;5.53;4.05;;;16.60;51.60;;;;;;5054201;28;20033;-66
2022/09/24 11:35:45;;;;;;;5.57;3.70;;;16.70;51.20;;;;;;5051346;28;20079;-65
2022/09/24 11:38:20;;;;;;;6.97;3.53;;;16.70;48.80;;;;;;5047455;28;20507;-66
2022/09/24 11:41:20;;;;;;;5.82;4.00;;;16.60;49.90;;;;;;5029996;28;20117;-66
2022/09/24 11:44:23;;;;;;;3.53;2.92;;;16.70;50.70;;;;;;5044933;28;20055;-66
2022/09/24 11:47:03;;;;;;;4.88;2.95;;;17.00;49.70;;;;;;5029186;28;20013;-66
2022/09/24 11:50:14;;;;;;;7.65;3.25;;;17.40;49.50;;;;;;5069725;28;20168;-66
2022/09/24 11:52:51;;;;;;;4.45;3.10;;;17.70;45.70;;;;;;5035164;28;20025;-66
2022/09/24 11:55:30;;;;;;;4.57;2.75;;;17.70;46.50;;;;;;5049675;28;20036;-66
2022/09/24 11:58:19;;;;;;;5.00;3.35;;;17.70;46.00;;;;;;5046886;28;20040;-66
2022/09/24 12:01:10;;;;;;;5.68;3.08;;;17.90;46.90;;;;;;5028320;28;20032;-67
2022/09/24 12:04:01;;;;;;;3.30;2.85;;;18.00;43.50;;;;;;5042817;28;20063;-67
2022/09/24 12:06:41;;;;;;;4.72;3.40;;;18.20;44.60;;;;;;5029535;28;20037;-68
2022/09/24 12:09:30;;;;;;;3.72;3.30;;;18.20;45.70;;;;;;5042238;28;20120;-67
2022/09/24 12:12:09;;;;;;;5.65;4.07;;;18.30;42.10;;;;;;5029099;28;20025;-67
2022/09/24 12:14:52;;;;;;;3.60;3.25;;;18.40;44.70;;;;;;5069463;28;20017;-67
2022/09/24 12:17:30;;;;;;;4.53;3.30;;;18.50;44.60;;;;;;5035151;28;20023;-68
2022/09/24 12:20:02;;;;;;;4.85;3.38;;;18.60;45.80;;;;;;5069162;28;20395;-67
2022/09/24 12:22:30;;;;;;;4.57;3.67;;;18.50;44.80;;;;;;5034238;28;20021;-66
2022/09/24 12:24:58;;;;;;;6.35;4.60;;;18.20;44.70;;;;;;5067898;28;20606;-67
2022/09/24 12:27:32;;;;;;;6.93;4.07;;;18.10;46.70;;;;;;5045912;28;20024;-67
2022/09/24 12:33:14;;;;;;;5.30;3.88;;;18.00;47.10;;;;;;5047513;28;20124;-68
2022/09/24 12:36:04;;;;;;;4.78;3.55;;;17.90;47.00;;;;;;5040442;28;20045;-67
2022/09/24 12:38:46;;;;;;;5.00;3.60;;;17.90;46.70;;;;;;5054165;28;20028;-67
2022/09/24 12:41:23;;;;;;;3.38;3.08;;;18.10;48.00;;;;;;5027811;28;20033;-68
2022/09/24 12:44:09;;;;;;;3.85;3.30;;;18.20;48.00;;;;;;5043047;28;20036;-67
2022/09/24 12:46:53;;;;;;;4.28;3.33;;;18.20;47.20;;;;;;5029217;28;20065;-67
2022/09/24 12:49:24;;;;;;;4.28;3.75;;;18.30;47.50;;;;;;5046893;28;20044;-67
2022/09/24 12:51:55;;;;;;;5.18;3.22;;;18.30;46.50;;;;;;5068302;28;20036;-67
2022/09/24 12:54:33;;;;;;;6.70;3.55;;;18.30;46.40;;;;;;5067261;28;20029;-67
2022/09/24 12:57:14;;;;;;;5.53;3.50;;;18.30;47.50;;;;;;5047360;28;20025;-67
2022/09/24 12:59:49;;;;;;;5.45;3.95;;;18.30;46.60;;;;;;5049032;28;20055;-62
2022/09/24 13:02:19;;;;;;;4.13;3.72;;;18.10;45.60;;;;;;5064349;28;20118;-63
2022/09/24 13:05:00;;;;;;;4.18;3.78;;;18.10;47.50;;;;;;5048872;28;20503;-63
2022/09/24 13:07:38;;;;;;;5.68;3.90;;;18.10;48.10;;;;;;5065986;28;20029;-63
2022/09/24 13:10:15;;;;;;;5.75;4.38;;;18.10;46.00;;;;;;5069156;28;20025;-63
2022/09/24 13:12:41;;;;;;;6.32;3.78;;;17.90;46.20;;;;;;5051323;28;20082;-63
2022/09/24 13:15:26;;;;;;;5.75;3.95;;;17.80;47.20;;;;;;5056691;28;20029;-63
2022/09/24 13:18:09;;;;;;;5.55;3.90;;;17.70;46.80;;;;;;5040342;28;20396;-63
2022/09/24 13:20:37;;;;;;;7.55;3.55;;;17.70;48.00;;;;;;5027599;28;20094;-63
2022/09/24 13:23:18;;;;;;;4.68;3.58;;;17.70;48.30;;;;;;5059835;28;20175;-63
2022/09/24 13:25:58;;;;;;;5.03;4.13;;;17.70;48.70;;;;;;5047698;28;20641;-63
2022/09/24 13:28:26;;;;;;;6.05;4.05;;;17.70;47.40;;;;;;5046505;28;20472;-63